createdAt,value
2019-03-27T00:00:20.644Z,10.00
2019-03-27T00:02:50.085Z,13.60
2019-03-27T00:05:19.532Z,12.30
2019-03-27T00:07:48.972Z,6.83
2019-03-27T00:10:18.402Z,9.53
2019-03-27T00:12:48.213Z,11.07
2019-03-27T00:15:17.671Z,9.37
2019-03-27T00:17:47.197Z,11.33
2019-03-27T00:20:16.704Z,8.57
2019-03-27T00:22:46.439Z,11.40
2019-03-27T00:25:16.089Z,11.17
2019-03-27T00:27:45.532Z,11.47
2019-03-27T00:30:15.032Z,7.10
2019-03-27T00:32:44.891Z,9.27
2019-03-27T00:35:14.341Z,8.93
2019-03-27T00:37:43.799Z,12.33
2019-03-27T00:40:13.408Z,11.00
2019-03-27T00:42:42.862Z,11.70
2019-03-27T00:45:25.430Z,8.63
2019-03-27T00:47:43.625Z,11.17
2019-03-27T00:50:14.337Z,9.50
2019-03-27T00:52:43.790Z,13.30
2019-03-27T00:55:13.587Z,9.50
2019-03-27T00:57:43.339Z,9.20
2019-03-27T01:00:27.400Z,12.47
2019-03-27T01:02:57.095Z,13.13
2019-03-27T01:05:26.614Z,10.87
2019-03-27T01:07:56.066Z,10.13
2019-03-27T01:10:25.519Z,13.43
2019-03-27T01:12:54.959Z,6.90
2019-03-27T01:15:24.403Z,10.80
2019-03-27T01:17:54.021Z,10.20
2019-03-27T01:20:23.802Z,12.63
2019-03-27T01:22:53.234Z,10.53
2019-03-27T01:25:22.783Z,10.27
2019-03-27T01:27:52.233Z,11.90
2019-03-27T01:30:21.670Z,15.57
2019-03-27T01:32:51.125Z,15.63
2019-03-27T01:35:20.579Z,10.90
2019-03-27T01:37:50.041Z,12.27
2019-03-27T01:40:19.483Z,12.03
2019-03-27T01:42:49.143Z,19.17
2019-03-27T01:45:20.057Z,15.93
2019-03-27T01:47:49.774Z,11.77
2019-03-27T01:50:19.491Z,12.60
2019-03-27T01:52:48.938Z,11.03
2019-03-27T01:55:18.381Z,14.77
2019-03-27T01:57:47.855Z,9.20
2019-03-27T02:00:17.736Z,13.97
2019-03-27T02:02:47.184Z,11.20
2019-03-27T02:05:17.168Z,11.57
2019-03-27T02:07:47.078Z,11.83
2019-03-27T02:10:17.078Z,13.33
2019-03-27T02:12:46.609Z,12.13
2019-03-27T02:15:16.303Z,14.50
2019-03-27T02:17:46.120Z,13.23
2019-03-27T02:20:15.637Z,11.60
2019-03-27T02:22:45.587Z,11.83
2019-03-27T02:25:15.201Z,14.80
2019-03-27T02:27:44.836Z,14.70
2019-03-27T02:30:14.353Z,13.07
2019-03-27T02:32:43.973Z,14.77
2019-03-27T02:35:13.597Z,11.77
2019-03-27T02:37:43.229Z,12.37
2019-03-27T02:40:12.805Z,10.20
2019-03-27T02:42:42.354Z,8.93
2019-03-27T02:45:12.069Z,13.03
2019-03-27T02:47:41.556Z,12.90
2019-03-27T02:50:11.172Z,11.37
2019-03-27T02:52:40.648Z,13.00
2019-03-27T02:55:10.142Z,16.03
2019-03-27T02:57:39.604Z,9.37
2019-03-27T03:00:11.134Z,15.20
2019-03-27T03:02:40.551Z,11.00
2019-03-27T03:05:10.419Z,9.60
2019-03-27T03:07:39.862Z,13.17
2019-03-27T03:10:10.024Z,16.97
2019-03-27T03:12:39.494Z,13.83
2019-03-27T03:15:09.293Z,10.10
2019-03-27T03:17:38.790Z,14.57
2019-03-27T03:20:08.734Z,8.67
2019-03-27T03:22:38.509Z,12.87
2019-03-27T03:25:08.607Z,10.83
2019-03-27T03:27:38.091Z,13.30
2019-03-27T03:30:09.460Z,15.93
2019-03-27T03:32:39.310Z,15.07
2019-03-27T03:35:09.033Z,21.53
2019-03-27T03:37:38.480Z,16.90
2019-03-27T03:40:08.753Z,37.27
2019-03-27T03:42:38.272Z,15.60
2019-03-27T03:45:07.795Z,19.20
2019-03-27T03:47:37.255Z,15.17
2019-03-27T03:50:29.514Z,13.70
2019-03-27T03:52:59.158Z,12.70
2019-03-27T03:55:28.633Z,11.20
2019-03-27T03:57:58.375Z,12.70
2019-03-27T04:00:27.987Z,14.50
2019-03-27T04:02:57.740Z,13.73
2019-03-27T04:05:27.223Z,18.13
2019-03-27T04:07:56.825Z,13.67
2019-03-27T04:10:26.332Z,15.57
2019-03-27T04:12:55.813Z,14.13
2019-03-27T04:15:25.277Z,13.97
2019-03-27T04:17:54.832Z,19.80
2019-03-27T04:20:24.288Z,14.60
2019-03-27T04:22:53.774Z,14.93
2019-03-27T04:25:23.194Z,13.67
2019-03-27T04:27:52.662Z,14.60
2019-03-27T04:30:22.121Z,12.70
2019-03-27T04:32:53.018Z,16.13
2019-03-27T04:35:22.915Z,17.10
2019-03-27T04:37:52.675Z,17.10
2019-03-27T04:40:22.129Z,15.77
2019-03-27T04:42:52.118Z,16.37
2019-03-27T04:45:21.574Z,17.57
2019-03-27T04:47:51.034Z,14.83
2019-03-27T04:50:20.507Z,13.07
2019-03-27T04:52:50.318Z,15.33
2019-03-27T04:55:19.800Z,13.57
2019-03-27T04:57:49.263Z,14.97
2019-03-27T05:00:19.025Z,20.93
2019-03-27T05:02:48.545Z,19.83
2019-03-27T05:05:18.085Z,18.33
2019-03-27T05:07:47.559Z,22.43
2019-03-27T05:10:17.022Z,20.33
2019-03-27T05:12:48.606Z,23.37
2019-03-27T05:15:18.231Z,26.47
2019-03-27T05:17:47.708Z,21.90
2019-03-27T05:20:17.172Z,29.20
2019-03-27T05:22:46.657Z,19.73
2019-03-27T05:25:16.112Z,30.97
2019-03-27T05:27:45.875Z,25.37
2019-03-27T05:30:18.539Z,27.40
2019-03-27T05:32:49.838Z,23.87
2019-03-27T05:35:19.615Z,27.77
2019-03-27T05:37:49.094Z,31.77
2019-03-27T05:40:18.561Z,30.60
2019-03-27T05:42:59.981Z,32.10
2019-03-27T05:45:19.505Z,35.17
2019-03-27T05:47:59.633Z,31.60
2019-03-27T05:50:24.445Z,31.47
2019-03-27T05:52:53.963Z,34.80
2019-03-27T05:55:26.461Z,32.13
2019-03-27T05:57:54.751Z,32.33
2019-03-27T06:00:24.477Z,36.93
2019-03-27T06:02:54.136Z,36.37
2019-03-27T06:05:23.859Z,35.50
2019-03-27T06:07:53.305Z,32.93
2019-03-27T06:10:22.784Z,31.40
2019-03-27T06:12:52.243Z,33.93
2019-03-27T06:15:21.737Z,33.17
2019-03-27T06:17:51.236Z,35.13
2019-03-27T06:20:20.666Z,30.03
2019-03-27T06:22:50.128Z,29.10
2019-03-27T06:25:19.607Z,29.17
2019-03-27T06:27:49.085Z,32.97
2019-03-27T06:30:18.643Z,33.47
2019-03-27T06:32:48.133Z,30.87
2019-03-27T06:35:20.152Z,30.07
2019-03-27T06:37:49.167Z,27.50
2019-03-27T06:40:18.690Z,27.17
2019-03-27T06:42:48.448Z,26.80
2019-03-27T06:45:17.930Z,29.80
2019-03-27T06:47:47.410Z,28.53
2019-03-27T06:50:16.878Z,34.93
2019-03-27T06:52:46.986Z,26.63
2019-03-27T06:55:16.454Z,27.87
2019-03-27T06:57:45.908Z,30.00
2019-03-27T07:00:15.798Z,31.80
2019-03-27T07:02:45.392Z,37.07
2019-03-27T07:05:14.918Z,34.00
2019-03-27T07:07:44.763Z,31.63
2019-03-27T07:10:14.409Z,27.03
2019-03-27T07:12:43.873Z,27.57
2019-03-27T07:15:13.542Z,29.10
2019-03-27T07:17:43.061Z,27.80
2019-03-27T07:20:12.606Z,27.43
2019-03-27T07:22:42.068Z,26.40
2019-03-27T07:25:13.077Z,21.30
2019-03-27T07:27:42.547Z,24.27
2019-03-27T07:30:12.458Z,24.60
2019-03-27T07:32:41.986Z,29.37
2019-03-27T07:35:11.462Z,20.47
2019-03-27T07:37:41.270Z,22.53
2019-03-27T07:40:11.622Z,29.17
2019-03-27T07:42:41.097Z,23.23
2019-03-27T07:45:10.735Z,25.57
2019-03-27T07:47:40.189Z,27.77
2019-03-27T07:50:10.098Z,21.03
2019-03-27T07:52:39.560Z,21.27
2019-03-27T07:55:19.150Z,18.07
2019-03-27T07:57:41.038Z,20.27
2019-03-27T08:00:13.916Z,22.10
2019-03-27T08:02:43.746Z,26.47
2019-03-27T08:05:13.218Z,25.40
2019-03-27T08:07:42.703Z,24.13
2019-03-27T08:10:12.327Z,25.90
2019-03-27T08:12:41.788Z,21.23
2019-03-27T08:15:11.532Z,18.93
2019-03-27T08:17:40.996Z,25.50
2019-03-27T08:20:11.203Z,22.20
2019-03-27T08:22:40.658Z,21.77
2019-03-27T08:25:10.650Z,22.80
2019-03-27T08:27:40.110Z,21.50
2019-03-27T08:30:14.015Z,21.43
2019-03-27T08:32:43.681Z,20.43
2019-03-27T08:35:13.487Z,23.57
2019-03-27T08:37:42.969Z,18.70
2019-03-27T08:40:12.781Z,17.93
2019-03-27T08:42:42.241Z,23.27
2019-03-27T08:45:12.005Z,19.00
2019-03-27T08:47:41.431Z,20.83
2019-03-27T08:50:11.367Z,18.70
2019-03-27T08:52:40.826Z,20.80
2019-03-27T08:55:13.585Z,26.67
2019-03-27T08:57:42.079Z,17.80
2019-03-27T09:00:13.730Z,19.93
2019-03-27T09:02:43.309Z,21.80
2019-03-27T09:05:12.846Z,21.37
2019-03-27T09:07:42.333Z,21.73
2019-03-27T09:10:12.150Z,25.40
2019-03-27T09:12:42.200Z,22.27
2019-03-27T09:15:12.478Z,19.13
2019-03-27T09:17:41.958Z,20.10
2019-03-27T09:20:11.977Z,22.30
2019-03-27T09:22:41.471Z,21.83
2019-03-27T09:25:11.013Z,18.43
2019-03-27T09:27:40.473Z,20.63
2019-03-27T09:30:12.407Z,16.10
2019-03-27T09:32:41.865Z,19.10
2019-03-27T09:35:11.499Z,15.27
2019-03-27T09:37:41.001Z,19.23
2019-03-27T09:40:11.117Z,22.73
2019-03-27T09:42:40.607Z,14.80
2019-03-27T09:45:10.901Z,19.43
2019-03-27T09:47:41.240Z,21.47
2019-03-27T09:50:10.987Z,19.50
2019-03-27T09:52:40.452Z,14.07
2019-03-27T09:55:10.464Z,13.33
2019-03-27T09:57:39.893Z,13.03
2019-03-27T10:00:10.726Z,14.43
2019-03-27T10:02:40.461Z,14.93
2019-03-27T10:05:10.090Z,15.63
2019-03-27T10:07:39.545Z,11.70
2019-03-27T10:10:09.209Z,13.40
2019-03-27T10:12:38.658Z,9.87
2019-03-27T10:15:09.183Z,9.97
2019-03-27T10:17:38.640Z,12.87
2019-03-27T10:20:08.447Z,10.87
2019-03-27T10:22:38.027Z,10.67
2019-03-27T10:25:08.627Z,13.37
2019-03-27T10:27:38.152Z,9.70
2019-03-27T10:30:07.999Z,12.73
2019-03-27T10:32:37.775Z,13.57
2019-03-27T10:35:07.502Z,12.50
2019-03-27T10:37:36.965Z,10.43
2019-03-27T10:40:07.767Z,11.27
2019-03-27T10:42:37.238Z,15.20
2019-03-27T10:45:06.820Z,12.37
2019-03-27T10:47:36.305Z,11.63
2019-03-27T10:50:16.950Z,11.87
2019-03-27T10:52:38.163Z,12.83
2019-03-27T10:55:07.854Z,13.83
2019-03-27T10:57:37.499Z,11.63
2019-03-27T11:00:10.218Z,11.50
2019-03-27T11:02:39.652Z,13.37
2019-03-27T11:05:09.277Z,11.13
2019-03-27T11:07:38.735Z,10.63
2019-03-27T11:10:09.331Z,12.47
2019-03-27T11:12:38.819Z,13.47
2019-03-27T11:15:09.053Z,16.60
2019-03-27T11:17:38.512Z,13.33
2019-03-27T11:20:08.410Z,13.90
2019-03-27T11:22:38.034Z,13.03
2019-03-27T11:25:07.920Z,15.03
2019-03-27T11:27:37.408Z,15.33
2019-03-27T11:30:08.002Z,14.90
2019-03-27T11:32:37.455Z,14.37
2019-03-27T11:35:07.307Z,14.90
2019-03-27T11:37:36.763Z,14.97
2019-03-27T11:40:06.846Z,14.50
2019-03-27T11:42:36.376Z,9.77
2019-03-27T11:45:07.966Z,11.50
2019-03-27T11:47:37.800Z,15.87
2019-03-27T11:50:10.582Z,7.93
2019-03-27T11:52:40.040Z,12.77
2019-03-27T11:55:09.569Z,16.77
2019-03-27T11:57:39.528Z,15.47
2019-03-27T12:00:10.749Z,18.07
2019-03-27T12:02:40.292Z,17.47
2019-03-27T12:05:09.910Z,14.80
2019-03-27T12:07:39.383Z,18.67
2019-03-27T12:10:09.147Z,13.63
2019-03-27T12:12:38.585Z,15.10
2019-03-27T12:15:28.955Z,19.97
2019-03-27T12:17:58.430Z,13.67
2019-03-27T12:20:27.892Z,17.90
2019-03-27T12:22:58.075Z,12.57
2019-03-27T12:25:27.551Z,12.97
2019-03-27T12:27:57.005Z,15.07
2019-03-27T12:30:26.493Z,18.93
2019-03-27T12:32:55.964Z,21.00
2019-03-27T12:35:25.418Z,15.37
2019-03-27T12:37:54.891Z,18.23
2019-03-27T12:40:24.358Z,14.37
2019-03-27T12:42:54.085Z,19.67
2019-03-27T12:45:23.795Z,15.17
2019-03-27T12:47:53.262Z,14.73
2019-03-27T12:50:22.731Z,16.07
2019-03-27T12:52:52.579Z,19.30
2019-03-27T12:55:22.023Z,15.37
2019-03-27T12:57:51.507Z,13.27
2019-03-27T13:00:21.329Z,14.57
2019-03-27T13:03:06.389Z,16.03
2019-03-27T13:05:36.108Z,15.83
2019-03-27T13:08:05.945Z,14.17
2019-03-27T13:10:43.306Z,16.63
2019-03-27T13:13:26.367Z,13.97
2019-03-27T13:16:00.237Z,14.33
2019-03-27T13:18:46.631Z,16.50
2019-03-27T13:21:26.100Z,15.27
2019-03-27T13:24:02.738Z,13.83
2019-03-27T13:26:40.529Z,11.80
2019-03-27T13:29:26.492Z,13.67
2019-03-27T13:32:05.240Z,12.97
2019-03-27T13:34:42.916Z,14.63
2019-03-27T13:37:13.637Z,17.27
2019-03-27T13:39:43.083Z,16.73
2019-03-27T13:42:17.403Z,19.20
2019-03-27T13:44:58.959Z,14.90
2019-03-27T13:47:28.152Z,16.10
2019-03-27T13:50:03.777Z,15.80
2019-03-27T13:52:37.758Z,17.40
2019-03-27T13:55:09.355Z,16.63
2019-03-27T13:57:55.765Z,15.13
2019-03-27T14:00:27.004Z,17.90
2019-03-27T14:02:58.597Z,15.90
2019-03-27T14:05:30.902Z,14.63
2019-03-27T14:08:08.766Z,17.73
2019-03-27T14:10:39.879Z,16.80
2019-03-27T14:13:13.931Z,19.10
2019-03-27T14:15:45.488Z,14.80
2019-03-27T14:18:19.150Z,11.97
2019-03-27T14:21:11.566Z,14.70
2019-03-27T14:23:41.034Z,12.63
2019-03-27T14:26:24.012Z,17.47
2019-03-27T14:29:04.258Z,15.10
2019-03-27T14:31:45.890Z,16.27
2019-03-27T14:34:30.857Z,17.10
2019-03-27T14:37:09.508Z,18.80
2019-03-27T14:39:40.922Z,16.17
2019-03-27T14:42:24.170Z,16.07
2019-03-27T14:45:07.938Z,17.87
2019-03-27T14:47:42.319Z,20.87
2019-03-27T14:50:22.544Z,16.40
2019-03-27T14:53:01.269Z,18.27
2019-03-27T14:55:47.851Z,22.13
2019-03-27T14:58:23.408Z,24.70
2019-03-27T15:01:00.601Z,19.03
2019-03-27T15:03:30.202Z,19.37
2019-03-27T15:06:04.226Z,16.40
2019-03-27T15:08:43.210Z,19.13
2019-03-27T15:11:12.930Z,18.07
2019-03-27T15:13:42.409Z,21.73
2019-03-27T15:16:11.886Z,19.40
2019-03-27T15:18:41.375Z,20.70
2019-03-27T15:21:10.840Z,22.10
2019-03-27T15:23:40.318Z,22.77
2019-03-27T15:26:10.130Z,22.40
2019-03-27T15:28:39.953Z,22.90
2019-03-27T15:31:20.509Z,21.83
2019-03-27T15:33:41.644Z,23.20
2019-03-27T15:36:11.244Z,23.53
2019-03-27T15:38:40.732Z,21.03
2019-03-27T15:41:10.207Z,18.90
2019-03-27T15:43:40.061Z,22.20
2019-03-27T15:46:09.536Z,21.87
2019-03-27T15:48:39.132Z,27.43
2019-03-27T15:51:08.569Z,22.07
2019-03-27T15:53:38.049Z,19.53
2019-03-27T15:56:07.802Z,16.97
2019-03-27T15:58:37.273Z,18.53
2019-03-27T16:01:07.307Z,17.50
2019-03-27T16:03:37.232Z,19.37
2019-03-27T16:06:06.959Z,18.70
2019-03-27T16:08:36.946Z,21.27
2019-03-27T16:11:06.760Z,17.80
2019-03-27T16:13:36.245Z,17.87
2019-03-27T16:16:05.704Z,20.70
2019-03-27T16:18:35.268Z,23.90
2019-03-27T16:21:04.904Z,18.83
2019-03-27T16:23:34.415Z,19.47
2019-03-27T16:26:06.056Z,21.57
2019-03-27T16:28:35.895Z,18.70
2019-03-27T16:31:05.793Z,22.20
2019-03-27T16:33:35.407Z,20.93
2019-03-27T16:36:05.236Z,20.30
2019-03-27T16:38:35.228Z,19.77
2019-03-27T16:41:04.688Z,20.77
2019-03-27T16:43:34.162Z,17.83
2019-03-27T16:46:03.674Z,18.87
2019-03-27T16:48:33.263Z,19.73
2019-03-27T16:51:02.747Z,21.43
2019-03-27T16:53:32.193Z,21.23
2019-03-27T16:56:01.950Z,19.63
2019-03-27T16:58:31.419Z,19.73
2019-03-27T17:01:01.402Z,18.80
2019-03-27T17:03:31.227Z,18.77
2019-03-27T17:06:00.683Z,20.13
2019-03-27T17:08:30.187Z,20.57
2019-03-27T17:10:59.691Z,18.20
2019-03-27T17:13:29.186Z,18.67
2019-03-27T17:15:59.000Z,21.17
2019-03-27T17:18:28.477Z,19.50
2019-03-27T17:20:59.758Z,17.77
2019-03-27T17:23:29.299Z,21.63
2019-03-27T17:25:58.882Z,21.33
2019-03-27T17:28:28.556Z,22.97
2019-03-27T17:30:58.568Z,20.07
2019-03-27T17:33:28.475Z,19.23
2019-03-27T17:35:57.927Z,19.90
2019-03-27T17:38:27.405Z,19.77
2019-03-27T17:40:56.888Z,18.47
2019-03-27T17:43:26.507Z,18.07
2019-03-27T17:45:56.070Z,18.90
2019-03-27T17:48:25.973Z,17.73
2019-03-27T17:50:56.139Z,21.93
2019-03-27T17:53:31.599Z,20.53
2019-03-27T17:55:56.893Z,19.77
2019-03-27T17:58:26.361Z,20.60
2019-03-27T18:00:58.304Z,22.20
2019-03-27T18:03:27.890Z,20.33
2019-03-27T18:05:59.030Z,22.77
2019-03-27T18:08:29.524Z,22.17
2019-03-27T18:10:59.060Z,20.70
2019-03-27T18:13:28.610Z,20.83
2019-03-27T18:15:58.320Z,20.03
2019-03-27T18:18:27.952Z,17.57
2019-03-27T18:20:57.444Z,19.70
2019-03-27T18:23:26.912Z,18.80
2019-03-27T18:25:56.691Z,19.40
2019-03-27T18:28:26.510Z,22.43
2019-03-27T18:30:56.075Z,20.07
2019-03-27T18:33:26.698Z,21.70
2019-03-27T18:35:56.577Z,19.90
2019-03-27T18:38:26.470Z,19.10
2019-03-27T18:40:55.966Z,19.77
2019-03-27T18:43:25.609Z,22.83
2019-03-27T18:45:55.088Z,23.63
2019-03-27T18:48:24.549Z,20.37
2019-03-27T18:50:54.023Z,20.07
2019-03-27T18:53:23.493Z,19.80
2019-03-27T18:55:52.965Z,19.30
2019-03-27T18:58:22.421Z,21.13
2019-03-27T19:00:52.015Z,25.17
2019-03-27T19:03:21.919Z,19.77
2019-03-27T19:05:51.573Z,21.97
2019-03-27T19:08:21.052Z,22.83
2019-03-27T19:10:50.609Z,24.67
2019-03-27T19:13:20.096Z,20.03
2019-03-27T19:15:49.653Z,19.73
2019-03-27T19:18:19.150Z,22.27
2019-03-27T19:20:50.793Z,20.77
2019-03-27T19:23:20.265Z,21.63
2019-03-27T19:25:49.745Z,23.03
2019-03-27T19:28:19.217Z,25.30
2019-03-27T19:30:48.733Z,21.03
2019-03-27T19:33:18.493Z,22.17
2019-03-27T19:35:47.974Z,20.77
2019-03-27T19:38:17.805Z,23.07
2019-03-27T19:40:47.282Z,21.60
2019-03-27T19:43:17.006Z,20.80
2019-03-27T19:45:46.650Z,21.00
2019-03-27T19:48:16.363Z,22.30
2019-03-27T19:50:45.825Z,23.90
2019-03-27T19:53:15.372Z,19.90
2019-03-27T19:55:44.841Z,23.57
2019-03-27T19:58:14.338Z,28.80
2019-03-27T20:00:43.861Z,18.47
2019-03-27T20:03:13.339Z,20.27
2019-03-27T20:05:42.826Z,16.37
2019-03-27T20:08:12.333Z,19.97
2019-03-27T20:10:42.192Z,15.50
2019-03-27T20:13:12.135Z,20.03
2019-03-27T20:15:41.597Z,19.37
2019-03-27T20:18:11.062Z,19.30
2019-03-27T20:20:40.535Z,19.23
2019-03-27T20:23:15.126Z,17.73
2019-03-27T20:25:41.744Z,19.30
2019-03-27T20:28:11.384Z,18.17
2019-03-27T20:30:40.905Z,20.00
2019-03-27T20:33:10.369Z,24.47
2019-03-27T20:35:39.845Z,26.27
2019-03-27T20:38:09.302Z,22.20
2019-03-27T20:40:38.802Z,23.73
2019-03-27T20:43:08.311Z,21.07
2019-03-27T20:45:37.806Z,21.37
2019-03-27T20:48:07.546Z,21.47
2019-03-27T20:50:37.054Z,20.17
2019-03-27T20:53:06.523Z,21.07
2019-03-27T20:55:36.264Z,26.13
2019-03-27T20:58:06.111Z,24.87
2019-03-27T21:00:35.608Z,22.63
2019-03-27T21:03:05.073Z,25.80
2019-03-27T21:05:35.248Z,28.37
2019-03-27T21:08:05.131Z,25.50
2019-03-27T21:10:34.747Z,24.10
2019-03-27T21:13:04.207Z,28.13
2019-03-27T21:15:33.672Z,27.77
2019-03-27T21:18:03.205Z,31.43
2019-03-27T21:20:33.096Z,27.87
2019-03-27T21:23:02.547Z,27.30
2019-03-27T21:25:32.013Z,29.13
2019-03-27T21:28:01.527Z,31.90
2019-03-27T21:30:31.012Z,26.43
2019-03-27T21:33:00.478Z,31.03
2019-03-27T21:35:29.936Z,26.23
2019-03-27T21:37:59.506Z,28.57
2019-03-27T21:40:28.963Z,32.87
2019-03-27T21:42:58.926Z,30.00
2019-03-27T21:45:28.400Z,31.27
2019-03-27T21:47:57.872Z,32.50
2019-03-27T21:50:27.360Z,31.53
2019-03-27T21:53:00.859Z,32.70
2019-03-27T21:55:28.355Z,34.43
2019-03-27T21:57:58.108Z,34.47
2019-03-27T22:00:38.092Z,33.83
2019-03-27T22:03:08.460Z,32.80
2019-03-27T22:05:37.931Z,34.03
2019-03-27T22:08:07.398Z,30.37
2019-03-27T22:10:37.097Z,31.20
2019-03-27T22:13:06.482Z,29.83
2019-03-27T22:15:35.937Z,30.03
2019-03-27T22:18:05.451Z,37.80
2019-03-27T22:20:34.917Z,34.07
2019-03-27T22:23:04.388Z,33.67
2019-03-27T22:25:36.234Z,31.90
2019-03-27T22:28:05.007Z,40.53
2019-03-27T22:30:34.781Z,38.37
2019-03-27T22:33:04.296Z,38.43
2019-03-27T22:35:33.739Z,43.00
2019-03-27T22:38:03.601Z,40.40
2019-03-27T22:40:33.098Z,38.90
2019-03-27T22:43:02.562Z,39.83
2019-03-27T22:45:32.030Z,42.07
2019-03-27T22:48:01.506Z,30.73
2019-03-27T22:50:30.983Z,43.47
2019-03-27T22:53:00.483Z,36.67
2019-03-27T22:55:29.946Z,36.87
2019-03-27T22:57:59.413Z,37.87
2019-03-27T23:00:45.638Z,40.10
2019-03-27T23:03:18.596Z,35.57
2019-03-27T23:05:46.802Z,38.33
2019-03-27T23:08:16.267Z,35.03
2019-03-27T23:10:45.731Z,38.03
2019-03-27T23:13:15.197Z,35.80
2019-03-27T23:15:44.827Z,39.13
2019-03-27T23:18:14.320Z,37.40
2019-03-27T23:20:44.979Z,32.80
2019-03-27T23:23:15.973Z,32.10
2019-03-27T23:25:45.836Z,34.50
2019-03-27T23:28:15.442Z,33.17
2019-03-27T23:30:44.893Z,35.63
2019-03-27T23:33:14.361Z,32.23
2019-03-27T23:35:44.572Z,35.83
2019-03-27T23:38:14.175Z,36.20
2019-03-27T23:40:43.630Z,36.63
2019-03-27T23:43:13.103Z,36.60
2019-03-27T23:45:42.989Z,34.33
2019-03-27T23:48:12.459Z,34.57
2019-03-27T23:50:41.915Z,32.80
2019-03-27T23:53:11.388Z,32.17
2019-03-27T23:55:40.848Z,31.93
2019-03-27T23:58:10.626Z,31.53
